This is the latest recevied weather packets stored in our database for station/object VE2CSM-13. If no packets are shown the sender has not sent any weather packets the latest 10 day(s).
| Time | Temp. | Humidity | Pressure | Rain* | Wind** | Luminosity | Snow |
|---|---|---|---|---|---|---|---|
| 1777962542 | 6.67° C | 86% | 1013 hPa | 0 mm | - | - | - |
| 1777962303 | 6.67° C | 85% | 1013.2 hPa | 0 mm | - | - | - |
| 1777962062 | 6.67° C | 85% | 1013.2 hPa | 0 mm | - | - | - |
| 1777961823 | 6.67° C | 85% | 1013.3 hPa | 0 mm | - | - | - |
| 1777961582 | 6.67° C | 85% | 1013.3 hPa | 0 mm | - | - | - |
| 1777961343 | 6.67° C | 85% | 1013.3 hPa | 0 mm | - | - | - |
| 1777961223 | 6.67° C | 84% | 1013.4 hPa | 0 mm | - | - | - |
| 1777961102 | 6.67° C | 84% | 1013.4 hPa | 0 mm | - | - | - |
| 1777961043 | 6.67° C | 84% | 1013.4 hPa | 0 mm | - | - | - |
| 1777960983 | 6.67° C | 84% | 1013.4 hPa | 0 mm | - | - | - |
| 1777960922 | 6.67° C | 84% | 1013.4 hPa | 0 mm | - | - | - |
| 1777957567 | 7.78° C | 81% | 1014.1 hPa | 0 mm | - | - | - |
| 1777953968 | 7.78° C | 80% | 1014.4 hPa | 0 mm | - | - | - |
| 1777943167 | 7.78° C | 80% | 1015.6 hPa | 0 mm | - | - | - |
| 1777934167 | 11.11° C | 69% | 1015 hPa | 0 mm | - | - | - |
| 1777932368 | 11.11° C | 67% | 1015 hPa | 0 mm | - | - | - |
| 1777925168 | 10° C | 68% | 1015.2 hPa | 0 mm | - | - | - |
| 1777921567 | 8.89° C | 73% | 1015.4 hPa | 0 mm | - | - | - |
| 1777917968 | 8.89° C | 73% | 1015.3 hPa | 0 mm | - | - | - |
| 1777916167 | 9.44° C | 72% | 1015.5 hPa | 0 mm | - | - | - |
| 1777910767 | 5° C | 87% | 1015.7 hPa | 0.25 mm | - | - | - |
| 1777903567 | 2.78° C | 89% | 1015.4 hPa | 2.79 mm | - | - | - |
| 1777898167 | 2.78° C | 75% | 1015.6 hPa | 0 mm | - | - | - |
| 1777896367 | 2.22° C | 78% | 1015.5 hPa | 0 mm | - | - | - |
| 1777894569 | 1.67° C | 79% | 1015.2 hPa | 0 mm | - | - | - |
* Rain latest hour (hover to see other rain measurements)
** Current wind speed in m/s (hover to see current wind gust speed)